Orion — WCC9851 — position and weather

sailwx.info

Track history (hours):
 
Tides and Currents Weather Stations Pressure Air Temp Water Temp Dewpoint Dewpoint Depression Visibility Wind Speed Wind Dir Waves Ship Positions

Orion

Owner: CROSS LINK INC, SAN FRANCISCO, CA. More information available from US FCC via Universal Licensing System and Coast Guard Vessel Documentation Center.

Last reported at 2018-Jul-22 20:05 UTC. Time now 2018-Jul-23 11:48 UTC.
Position N 37°46' W 122°23'.

; draft 3.7 m.

Type: Tug. MMSI: 366969470.

Date/timePositionNaut miles runAvg speedWind from/ knotsBaromVisibWave heightAir tempDewpointWater temp
2018-Jul-22 20:05N 37°46' W 122°23'0 0.0
2018-Jul-22 20:00N 37°46' W 122°23'4 7.5
2018-Jul-22 19:30N 37°50' W 122°24'4 8.5
2018-Jul-22 19:00N 37°54' W 122°23'1 2.6
2018-Jul-22 18:30N 37°55' W 122°22'1 2.1
2018-Jul-22 18:00N 37°54' W 122°23'2 3.3
2018-Jul-22 17:30N 37°54' W 122°25'3 5.1
2018-Jul-22 17:00N 37°55' W 122°22'2 3.1
2018-Jul-22 16:30N 37°54' W 122°24'510.2
2018-Jul-22 16:00N 37°49' W 122°24'3 5.8
2018-Jul-22 15:30N 37°46' W 122°23'0 0.0
2018-Jul-20 21:08N 37°46' W 122°23'0 0.4
2018-Jul-20 21:00N 37°46' W 122°23'1 1.5
2018-Jul-20 20:30N 37°46' W 122°23'4 7.5
2018-Jul-20 20:01N 37°42' W 122°21'5 8.9
2018-Jul-20 19:29N 37°38' W 122°19'4 9.3
2018-Jul-20 19:00N 37°35' W 122°15'4 1.5
2018-Jul-20 16:08N 37°31' W 122°13'0 0.0
2018-Jul-20 16:00N 37°31' W 122°13'9 0.3
2018-Jul-19 07:38N 37°39' W 122°19'1 6.6
2018-Jul-19 07:30N 37°39' W 122°19'3 6.5
2018-Jul-19 07:00N 37°42' W 122°21'3 6.6
2018-Jul-19 06:31N 37°46' W 122°22'1 2.2
2018-Jul-19 06:01N 37°46' W 122°23'0 0.3
2018-Jul-19 05:30N 37°46' W 122°23'0 0.0
2018-Jul-19 05:01N 37°46' W 122°23'0 0.0
2018-Jul-19 04:30N 37°46' W 122°23'  
2018-Jul-16 17:41N 37°46' W 122°23'0 0.7
2018-Jul-16 17:30N 37°47' W 122°23'4 7.3
2018-Jul-16 17:00N 37°49' W 122°26'4 7.8
2018-Jul-16 16:30N 37°49' W 122°31'0 0.2
2018-Jul-16 16:00N 37°49' W 122°31'510.7
2018-Jul-16 15:30N 37°51' W 122°25'4 8.2
2018-Jul-16 15:00N 37°55' W 122°26'1 2.3
2018-Jul-16 14:30N 37°56' W 122°27'612.5
2018-Jul-16 14:00N 38°01' W 122°23'611.8
2018-Jul-16 13:29N 38°04' W 122°16'510.1
2018-Jul-16 12:58N 38°02' W 122°10'3 6.3
2018-Jul-16 12:30N 38°03' W 122°06'2 3.7
2018-Jul-16 11:53N 38°02' W 122°09'410.0
2018-Jul-16 11:30N 38°04' W 122°13'1 0.1
2018-Jul-15 20:52N 38°04' W 122°14'4 9.6
2018-Jul-15 20:29N 38°02' W 122°10'3 5.1
2018-Jul-15 19:52N 38°03' W 122°06'6 4.7
2018-Jul-15 18:35N 38°04' W 122°14'3 6.8
2018-Jul-15 18:07N 38°03' W 122°18'2 7.3
2018-Jul-15 17:53N 38°03' W 122°20'3 7.6
2018-Jul-15 17:28N 38°01' W 122°23'4 7.8
2018-Jul-15 17:00N 37°58' W 122°26'3 6.0
2018-Jul-15 16:31N 37°55' W 122°25'0 0.1
2018-Jul-15 16:00N 37°55' W 122°25'0 1.0
2018-Jul-15 15:31N 37°55' W 122°25'4 7.0
2018-Jul-15 15:00N 37°51' W 122°24'510.0
2018-Jul-15 14:31N 37°46' W 122°23'0 0.0
2018-Jul-15 14:01N 37°46' W 122°23'0 0.0
2018-Jul-15 12:33N 37°46' W 122°23'0 0.0
2018-Jul-15 12:30N 37°46' W 122°23'0 0.1
2018-Jul-15 12:00N 37°46' W 122°23'0 0.1
2018-Jul-15 11:30N 37°47' W 122°23'1 2.1
2018-Jul-15 11:00N 37°46' W 122°22'0 0.1
2018-Jul-15 10:30N 37°46' W 122°22'0 0.1
2018-Jul-15 10:00N 37°46' W 122°22'0 0.3
2018-Jul-15 09:30N 37°46' W 122°22'0 0.1
2018-Jul-15 09:00N 37°46' W 122°21'0 0.2
2018-Jul-15 08:30N 37°46' W 122°22'1 2.5
2018-Jul-15 08:01N 37°47' W 122°23'0 0.0
2018-Jul-15 07:30N 37°46' W 122°23'2 3.4
2018-Jul-15 07:00N 37°45' W 122°23'1 1.3
2018-Jul-15 06:30N 37°45' W 122°22'1 2.3
2018-Jul-15 06:00N 37°46' W 122°22'0 0.1
2018-Jul-15 05:30N 37°46' W 122°22'0 0.0
2018-Jul-15 05:00N 37°46' W 122°22'0 0.1
2018-Jul-15 04:30N 37°46' W 122°21'0 0.2
2018-Jul-15 04:00N 37°46' W 122°21'0 0.2
2018-Jul-15 03:30N 37°46' W 122°22'0 0.1
2018-Jul-15 03:00N 37°46' W 122°22'0 0.3
2018-Jul-15 02:30N 37°46' W 122°22'2 3.4
2018-Jul-15 02:01N 37°45' W 122°23'0 0.0
2018-Jul-15 01:30N 37°45' W 122°23'0 0.0
2018-Jul-15 01:00N 37°45' W 122°23'0 0.4
2018-Jul-15 00:30N 37°45' W 122°23'2 3.3
2018-Jul-15 00:00N 37°46' W 122°23'0 0.0
2018-Jul-14 21:27N 37°46' W 122°23'0 0.1
2018-Jul-14 21:00N 37°46' W 122°23'3 5.4
2018-Jul-14 20:30N 37°44' W 122°21'4 7.0
2018-Jul-14 20:00N 37°41' W 122°20'3 6.9
2018-Jul-14 19:30N 37°38' W 122°18'3 6.5
2018-Jul-14 19:00N 37°35' W 122°15'5 0.7
2018-Jul-14 12:10N 37°31' W 122°12'0 2.2
2018-Jul-14 12:00N 37°31' W 122°12'2 4.0
2018-Jul-14 11:29N 37°33' W 122°12'5 4.4
2018-Jul-14 10:17N 37°37' W 122°17'2 4.1
2018-Jul-14 09:42N 37°39' W 122°19'1 4.8
2018-Jul-14 09:28N 37°40' W 122°19'2 5.2
2018-Jul-14 09:00N 37°42' W 122°20'4 7.1
2018-Jul-14 08:30N 37°45' W 122°22'1 1.3
2018-Jul-14 08:00N 37°46' W 122°21'0 0.0
2018-Jul-14 07:30N 37°46' W 122°21'0 0.0
2018-Jul-14 07:00N 37°46' W 122°21'0 0.3
2018-Jul-14 06:31N 37°46' W 122°21'1 2.8
2018-Jul-14 06:00N 37°46' W 122°23'0 0.0
2018-Jul-12 21:33N 37°46' W 122°23'0 0.0
2018-Jul-12 21:30N 37°46' W 122°23'3 5.9
2018-Jul-12 21:00N 37°49' W 122°23'5 9.3
2018-Jul-12 20:30N 37°54' W 122°24'  
Track history (hours):
 
Tides and Currents Weather Stations Pressure Air Temp Water Temp Dewpoint Dewpoint Depression Visibility Wind Speed Wind Dir Waves Ship Positions

Orion

Owner: CROSS LINK INC, SAN FRANCISCO, CA. More information available from US FCC via Universal Licensing System and Coast Guard Vessel Documentation Center.

Last reported at 2018-Jul-22 20:05 UTC. Time now 2018-Jul-23 11:48 UTC.
Position N 37°46' W 122°23'.

; draft 3.7 m.

Type: Tug. MMSI: 366969470.

Date/timePositionNaut miles runAvg speedWind from/ knotsBaromVisibWave heightAir tempDewpointWater temp
2018-Jul-22 20:05N 37°46' W 122°23'0 0.0
2018-Jul-22 20:00N 37°46' W 122°23'4 7.5
2018-Jul-22 19:30N 37°50' W 122°24'4 8.5
2018-Jul-22 19:00N 37°54' W 122°23'1 2.6
2018-Jul-22 18:30N 37°55' W 122°22'1 2.1
2018-Jul-22 18:00N 37°54' W 122°23'2 3.3
2018-Jul-22 17:30N 37°54' W 122°25'3 5.1
2018-Jul-22 17:00N 37°55' W 122°22'2 3.1
2018-Jul-22 16:30N 37°54' W 122°24'510.2
2018-Jul-22 16:00N 37°49' W 122°24'3 5.8
2018-Jul-22 15:30N 37°46' W 122°23'0 0.0
2018-Jul-20 21:08N 37°46' W 122°23'0 0.4
2018-Jul-20 21:00N 37°46' W 122°23'1 1.5
2018-Jul-20 20:30N 37°46' W 122°23'4 7.5
2018-Jul-20 20:01N 37°42' W 122°21'5 8.9
2018-Jul-20 19:29N 37°38' W 122°19'4 9.3
2018-Jul-20 19:00N 37°35' W 122°15'4 1.5
2018-Jul-20 16:08N 37°31' W 122°13'0 0.0
2018-Jul-20 16:00N 37°31' W 122°13'9 0.3
2018-Jul-19 07:38N 37°39' W 122°19'1 6.6
2018-Jul-19 07:30N 37°39' W 122°19'3 6.5
2018-Jul-19 07:00N 37°42' W 122°21'3 6.6
2018-Jul-19 06:31N 37°46' W 122°22'1 2.2
2018-Jul-19 06:01N 37°46' W 122°23'0 0.3
2018-Jul-19 05:30N 37°46' W 122°23'0 0.0
2018-Jul-19 05:01N 37°46' W 122°23'0 0.0
2018-Jul-19 04:30N 37°46' W 122°23'  
2018-Jul-16 17:41N 37°46' W 122°23'0 0.7
2018-Jul-16 17:30N 37°47' W 122°23'4 7.3
2018-Jul-16 17:00N 37°49' W 122°26'4 7.8
2018-Jul-16 16:30N 37°49' W 122°31'0 0.2
2018-Jul-16 16:00N 37°49' W 122°31'510.7
2018-Jul-16 15:30N 37°51' W 122°25'4 8.2
2018-Jul-16 15:00N 37°55' W 122°26'1 2.3
2018-Jul-16 14:30N 37°56' W 122°27'612.5
2018-Jul-16 14:00N 38°01' W 122°23'611.8
2018-Jul-16 13:29N 38°04' W 122°16'510.1
2018-Jul-16 12:58N 38°02' W 122°10'3 6.3
2018-Jul-16 12:30N 38°03' W 122°06'2 3.7
2018-Jul-16 11:53N 38°02' W 122°09'410.0
2018-Jul-16 11:30N 38°04' W 122°13'1 0.1
2018-Jul-15 20:52N 38°04' W 122°14'4 9.6
2018-Jul-15 20:29N 38°02' W 122°10'3 5.1
2018-Jul-15 19:52N 38°03' W 122°06'6 4.7
2018-Jul-15 18:35N 38°04' W 122°14'3 6.8
2018-Jul-15 18:07N 38°03' W 122°18'2 7.3
2018-Jul-15 17:53N 38°03' W 122°20'3 7.6
2018-Jul-15 17:28N 38°01' W 122°23'4 7.8
2018-Jul-15 17:00N 37°58' W 122°26'3 6.0
2018-Jul-15 16:31N 37°55' W 122°25'0 0.1
2018-Jul-15 16:00N 37°55' W 122°25'0 1.0
2018-Jul-15 15:31N 37°55' W 122°25'4 7.0
2018-Jul-15 15:00N 37°51' W 122°24'510.0
2018-Jul-15 14:31N 37°46' W 122°23'0 0.0
2018-Jul-15 14:01N 37°46' W 122°23'0 0.0
2018-Jul-15 12:33N 37°46' W 122°23'0 0.0
2018-Jul-15 12:30N 37°46' W 122°23'0 0.1
2018-Jul-15 12:00N 37°46' W 122°23'0 0.1
2018-Jul-15 11:30N 37°47' W 122°23'1 2.1
2018-Jul-15 11:00N 37°46' W 122°22'0 0.1
2018-Jul-15 10:30N 37°46' W 122°22'0 0.1
2018-Jul-15 10:00N 37°46' W 122°22'0 0.3
2018-Jul-15 09:30N 37°46' W 122°22'0 0.1
2018-Jul-15 09:00N 37°46' W 122°21'0 0.2
2018-Jul-15 08:30N 37°46' W 122°22'1 2.5
2018-Jul-15 08:01N 37°47' W 122°23'0 0.0
2018-Jul-15 07:30N 37°46' W 122°23'2 3.4
2018-Jul-15 07:00N 37°45' W 122°23'1 1.3
2018-Jul-15 06:30N 37°45' W 122°22'1 2.3
2018-Jul-15 06:00N 37°46' W 122°22'0 0.1
2018-Jul-15 05:30N 37°46' W 122°22'0 0.0
2018-Jul-15 05:00N 37°46' W 122°22'0 0.1
2018-Jul-15 04:30N 37°46' W 122°21'0 0.2
2018-Jul-15 04:00N 37°46' W 122°21'0 0.2
2018-Jul-15 03:30N 37°46' W 122°22'0 0.1
2018-Jul-15 03:00N 37°46' W 122°22'0 0.3
2018-Jul-15 02:30N 37°46' W 122°22'2 3.4
2018-Jul-15 02:01N 37°45' W 122°23'0 0.0
2018-Jul-15 01:30N 37°45' W 122°23'0 0.0
2018-Jul-15 01:00N 37°45' W 122°23'0 0.4
2018-Jul-15 00:30N 37°45' W 122°23'2 3.3
2018-Jul-15 00:00N 37°46' W 122°23'0 0.0
2018-Jul-14 21:27N 37°46' W 122°23'0 0.1
2018-Jul-14 21:00N 37°46' W 122°23'3 5.4
2018-Jul-14 20:30N 37°44' W 122°21'4 7.0
2018-Jul-14 20:00N 37°41' W 122°20'3 6.9
2018-Jul-14 19:30N 37°38' W 122°18'3 6.5
2018-Jul-14 19:00N 37°35' W 122°15'5 0.7
2018-Jul-14 12:10N 37°31' W 122°12'0 2.2
2018-Jul-14 12:00N 37°31' W 122°12'2 4.0
2018-Jul-14 11:29N 37°33' W 122°12'5 4.4
2018-Jul-14 10:17N 37°37' W 122°17'2 4.1
2018-Jul-14 09:42N 37°39' W 122°19'1 4.8
2018-Jul-14 09:28N 37°40' W 122°19'2 5.2
2018-Jul-14 09:00N 37°42' W 122°20'4 7.1
2018-Jul-14 08:30N 37°45' W 122°22'1 1.3
2018-Jul-14 08:00N 37°46' W 122°21'0 0.0
2018-Jul-14 07:30N 37°46' W 122°21'0 0.0
2018-Jul-14 07:00N 37°46' W 122°21'0 0.3
2018-Jul-14 06:31N 37°46' W 122°21'1 2.8
2018-Jul-14 06:00N 37°46' W 122°23'0 0.0
2018-Jul-12 21:33N 37°46' W 122°23'0 0.0
2018-Jul-12 21:30N 37°46' W 122°23'3 5.9
2018-Jul-12 21:00N 37°49' W 122°23'5 9.3
2018-Jul-12 20:30N 37°54' W 122°24'  

Dump ship's entire track history